Latest Weather Observations for Nhill Aerodrome

IDV60801

Issued at 5:35 pm EST Sunday 21 September 2014 (issued every 30 minutes, with the page automatically refreshed every 10 minutes)

About weather observations | Map of weather stations | Latest weather observations for VIC | Other Formats
Station Details ID: 078015 Name: NHILL AERODROME Lat: -36.31 Lon: 141.65 Height: 138.9 m
Data from the previous 72 hours. | See also: Recent months at Nhill Aerodrome
Date/Time
EST
Temp
°C
App
Temp
°C
Dew
Point
Rel
Hum
%
Delta-T
°C
Wind Press
QNH
hPa
Press
MSL
hPa
Rain
since 9 am
mm
Dir
 
Spd
km/h
Gust
km/h
Spd
kts
Gust
kts
21/05:30pm 19.5 16.6 -1.0 25 8.8 SE 4 6 2 3 1027.3 1027.4 0.0
21/05:00pm 19.9 16.2 -0.1 26 8.8 SSE 9 19 5 10 1027.3 1027.4 0.0
21/04:30pm 20.1 16.7 -0.5 25 9.1 SSE 7 15 4 8 1027.4 1027.5 0.0
21/04:00pm 20.3 16.6 -0.3 25 9.1 ESE 9 15 5 8 1027.8 1027.9 0.0
21/03:30pm 20.6 17.8 -0.1 25 9.2 SW 4 11 2 6 1028.0 1028.1 0.0
21/03:00pm 20.1 16.0 0.0 26 8.9 ESE 11 19 6 10 1028.4 1028.4 0.0
21/02:30pm 20.0 16.8 1.0 28 8.6 SSE 7 13 4 7 1028.7 1028.7 0.0
21/02:00pm 18.5 15.1 1.9 33 7.5 SSE 9 15 5 8 1029.1 1029.1 0.0
21/01:30pm 18.6 15.7 2.4 34 7.4 W 7 11 4 6 1029.5 1029.6 0.0
21/01:00pm 17.7 14.8 1.7 34 7.2 SE 6 17 3 9 1029.9 1030.0 0.0
21/12:30pm 16.7 13.8 2.7 39 6.4 S 7 17 4 9 1030.5 1030.6 0.0
21/12:00pm 16.2 12.9 2.6 40 6.1 SE 9 17 5 9 1030.8 1030.9 0.0
21/11:30am 15.4 12.5 2.6 42 5.8 SSW 7 15 4 8 1031.0 1031.1 0.0
21/11:00am 14.8 12.0 3.3 46 5.2 E 7 15 4 8 1031.3 1031.4 0.0
21/10:30am 14.2 11.5 3.9 50 4.7 ESE 7 17 4 9 1031.4 1031.5 0.0
21/10:00am 13.7 10.0 4.6 54 4.2 E 13 19 7 10 1031.7 1031.8 0.0
21/09:30am 12.5 7.9 5.4 62 3.3 E 19 26 10 14 1032.1 1032.2 0.0
21/09:00am 11.3 6.7 5.4 67 2.7 E 19 24 10 13 1032.1 1032.2 0.0
21/08:30am 9.5 5.4 6.0 79 1.6 E 17 20 9 11 1031.8 1031.9 0.0
21/08:00am 8.2 4.8 6.0 86 1.0 E 13 15 7 8 1031.4 1031.5 0.0
21/07:30am 3.4 0.4 1.9 90 0.6 E 7 9 4 5 1030.9 1031.0 0.0
21/07:00am 4.5 1.3 3.2 91 0.5 E 9 11 5 6 1030.5 1030.6 0.0
21/06:30am 2.1 -0.2 0.6 90 0.6 SE 2 7 1 4 1030.4 1030.5 0.0
21/06:00am 1.8 -0.9 0.3 90 0.6 SE 4 7 2 4 1030.1 1030.2 0.0
21/05:30am 2.0 -1.3 0.4 89 0.6 SE 7 9 4 5 1029.9 1030.0 0.0
21/05:00am 2.9 -1.0 1.1 88 0.7 SSE 11 19 6 10 1029.7 1029.8 0.0
21/04:30am 2.3 -0.4 0.5 88 0.7 SE 4 7 2 4 1029.5 1029.6 0.0
21/04:00am 2.7 -0.8 1.1 89 0.6 SSE 9 11 5 6 1029.2 1029.2 0.0
21/03:30am 2.8 -0.2 1.0 88 0.7 SE 6 9 3 5 1029.3 1029.3 0.0
21/03:00am 2.1 -1.9 0.2 87 0.7 SSE 11 13 6 7 1029.3 1029.3 0.0
21/02:30am 3.5 0.4 1.5 87 0.8 SSE 7 9 4 5 1029.3 1029.3 0.0
21/02:00am 3.4 -0.1 1.4 87 0.8 SSE 9 11 5 6 1029.5 1029.6 0.0
21/01:30am 3.8 0.3 1.4 84 0.9 SSE 9 11 5 6 1029.5 1029.6 0.0
21/01:00am 4.9 2.1 2.3 83 1.0 SE 6 9 3 5 1029.6 1029.7 0.0
21/12:30am 5.2 2.3 2.6 83 1.1 SSE 7 9 4 5 1029.7 1029.8 0.0
21/12:00am 5.7 3.0 2.5 80 1.3 SE 6 7 3 4 1029.7 1029.8 0.0
 
Date/Time
EST
Temp
°C
App
Temp
°C
Dew
Point
Rel
Hum
%
Delta-T
°C
Wind Press
QNH
hPa
Press
MSL
hPa
Rain
since 9 am
mm
Dir
 
Spd
km/h
Gust
km/h
Spd
kts
Gust
kts
20/11:30pm 5.9 2.6 2.7 80 1.3 SSE 9 11 5 6 1029.8 1029.9 0.0
20/11:00pm 5.9 1.8 2.2 77 1.5 SSE 13 15 7 8 1030.0 1030.1 0.0
20/10:30pm 7.5 2.9 3.6 76 1.7 SE 17 19 9 10 1029.7 1029.8 0.0
20/10:00pm 8.4 4.0 2.6 67 2.4 SE 15 20 8 11 1029.7 1029.8 0.0
20/09:30pm 10.2 5.2 3.7 64 2.9 SE 19 22 10 12 1029.5 1029.6 0.0
20/09:00pm 9.4 4.7 3.4 66 2.6 SE 17 20 9 11 1029.3 1029.3 0.0
20/08:30pm 8.6 3.8 2.8 67 2.5 SSE 17 19 9 10 1029.2 1029.2 0.0
20/08:00pm 9.6 4.9 3.1 64 2.8 SSE 17 20 9 11 1028.9 1028.9 0.0
20/07:30pm 10.7 6.3 2.8 58 3.4 SSE 15 17 8 9 1028.4 1028.4 0.0
20/07:00pm 11.8 7.3 2.0 51 4.2 SSE 15 20 8 11 1028.0 1028.1 0.0
20/06:30pm 14.3 9.0 1.9 43 5.5 S 19 24 10 13 1027.6 1027.7 0.0
20/06:00pm 16.0 11.0 1.3 37 6.4 S 17 24 9 13 1027.2 1027.3 0.0
20/05:30pm 17.4 11.8 1.0 33 7.3 SSW 20 26 11 14 1026.9 1027.0 0.0
20/05:00pm 18.3 13.8 -0.5 28 8.1 SSE 13 19 7 10 1026.4 1026.5 0.0
20/04:30pm 18.7 13.8 -0.7 27 8.4 S 15 22 8 12 1026.2 1026.3 0.0
20/04:00pm 19.5 14.7 0.0 27 8.6 SSW 15 24 8 13 1026.1 1026.2 0.0
20/03:30pm 18.5 14.3 -0.8 27 8.3 S 11 24 6 13 1026.1 1026.2 0.0
20/03:00pm 19.0 14.6 0.1 28 8.3 S 13 19 7 10 1026.1 1026.2 0.0
20/02:30pm 18.1 14.0 -0.2 29 8.0 S 11 20 6 11 1026.2 1026.3 0.0
20/02:00pm 18.5 15.3 0.6 30 7.9 NNW 7 26 4 14 1026.1 1026.2 0.0
20/01:30pm 18.0 14.8 0.6 31 7.7 NNE 7 19 4 10 1026.4 1026.5 0.0
20/01:00pm 17.2 14.0 3.1 39 6.5 S 9 28 5 15 1026.7 1026.8 0.0
20/12:30pm 16.6 14.4 3.3 41 6.2 SSW 4 13 2 7 1027.1 1027.2 0.0
20/12:00pm 16.2 13.5 2.9 41 6.0 SSE 6 13 3 7 1027.6 1027.7 0.0
20/11:30am 15.2 12.4 3.0 44 5.5 SE 7 20 4 11 1028.0 1028.1 0.0
20/11:00am 15.1 12.6 3.6 46 5.3 S 6 11 3 6 1028.5 1028.5 0.0
20/10:30am 13.9 10.3 3.1 48 4.9 E 11 15 6 8 1028.9 1028.9 0.0
20/10:00am 13.7 10.0 4.3 53 4.3 E 13 20 7 11 1029.1 1029.1 0.0
20/09:30am 12.4 7.6 4.6 59 3.6 E 19 28 10 15 1029.1 1029.1 0.0
20/09:00am 11.3 6.5 5.4 67 2.7 E 20 26 11 14 1028.8 1028.8 0.0
20/08:30am 9.6 5.6 6.7 82 1.4 E 17 24 9 13 1028.6 1028.6 0.0
20/08:00am 8.1 4.8 6.2 88 0.9 E 13 17 7 9 1028.0 1028.1 0.0
20/07:30am 3.7 0.8 2.5 92 0.5 ESE 7 9 4 5 1027.8 1027.9 0.0
20/07:00am 1.1 -2.0 -0.1 92 0.4 SE 6 9 3 5 1027.5 1027.6 0.0
20/06:30am 1.1 -2.1 -0.2 91 0.5 SE 6 6 3 3 1027.1 1027.2 0.0
20/06:00am 2.0 -1.0 0.7 91 0.5 SE 6 7 3 4 1026.9 1027.0 0.0
20/05:30am 2.0 -1.0 0.7 91 0.5 SSE 6 9 3 5 1026.3 1026.4 0.0
20/05:00am 1.4 -1.9 -0.1 90 0.5 SSE 7 9 4 5 1025.9 1026.0 0.0
20/04:30am 1.5 -2.2 -0.1 89 0.6 SSE 9 11 5 6 1025.6 1025.7 0.0
20/04:00am 2.1 -1.5 0.5 89 0.6 SSE 9 11 5 6 1025.3 1025.4 0.0
20/03:30am 2.4 -0.6 0.6 88 0.7 SE 6 7 3 4 1025.2 1025.3 0.0
20/03:00am 2.4 -0.6 0.5 87 0.7 SE 6 7 3 4 1025.2 1025.3 0.0
20/02:30am 2.7 0.8 0.6 86 0.8 CALM 0 4 0 2 1025.4 1025.5 0.0
20/02:00am 3.5 0.4 1.4 86 0.8 SE 7 9 4 5 1025.6 1025.7 0.0
20/01:30am 2.6 -1.1 0.0 83 1.0 SSE 9 11 5 6 1025.7 1025.8 0.0
20/01:00am 2.7 -1.1 -0.4 80 1.1 SE 9 9 5 5 1025.8 1025.9 0.0
20/12:30am 4.4 1.4 1.1 79 1.3 SE 6 7 3 4 1025.7 1025.8 0.0
20/12:00am 4.8 1.0 1.5 79 1.3 SE 11 13 6 7 1025.4 1025.5 0.0
 
Date/Time
EST
Temp
°C
App
Temp
°C
Dew
Point
Rel
Hum
%
Delta-T
°C
Wind Press
QNH
hPa
Press
MSL
hPa
Rain
since 9 am
mm
Dir
 
Spd
km/h
Gust
km/h
Spd
kts
Gust
kts
19/11:30pm 4.6 0.6 0.7 76 1.5 SSE 11 13 6 7 1025.5 1025.6 0.0
19/11:00pm 5.0 1.7 0.2 71 1.8 SSE 7 13 4 7 1025.7 1025.8 0.0
19/10:30pm 6.2 2.7 1.3 71 2.0 SSE 9 9 5 5 1025.6 1025.7 0.0
19/10:00pm 6.6 3.5 1.3 69 2.1 SSE 7 9 4 5 1025.8 1025.9 0.0
19/09:30pm 6.3 2.3 0.8 68 2.2 SSE 11 13 6 7 1025.8 1025.9 0.0
19/09:00pm 7.6 3.8 1.5 65 2.5 SSE 11 11 6 6 1025.8 1025.9 0.0
19/08:30pm 8.0 4.9 1.6 64 2.6 SSE 7 9 4 5 1025.7 1025.8 0.0
19/08:00pm 7.8 4.7 1.2 63 2.7 S 7 11 4 6 1025.5 1025.6 0.0
19/07:30pm 8.2 4.0 1.4 62 2.8 S 13 15 7 8 1025.1 1025.2 0.0
19/07:00pm 10.0 6.3 2.1 58 3.3 S 11 13 6 7 1024.8 1024.9 0.0
19/06:30pm 11.0 6.9 2.3 55 3.8 S 13 15 7 8 1024.7 1024.8 0.0
19/06:00pm 13.9 9.0 2.2 45 5.1 SSW 17 20 9 11 1024.3 1024.4 0.0
19/05:30pm 15.8 11.4 0.4 35 6.7 S 13 17 7 9 1024.1 1024.2 0.0
19/05:00pm 14.0 10.4 2.9 47 5.0 S 11 11 6 6 1023.8 1023.9 0.0
19/04:30pm 15.7 12.2 1.1 37 6.4 S 9 13 5 7 1023.8 1023.9 0.0
19/04:00pm 16.9 14.9 0.1 32 7.3 CALM 0 7 0 4 1023.8 1023.9 0.0
19/03:30pm 16.2 12.5 -0.1 33 7.0 W 9 22 5 12 1023.7 1023.8 0.0
19/03:00pm 16.3 12.2 0.0 33 7.0 NW 11 20 6 11 1023.9 1024.0 0.0
19/02:30pm 16.3 14.4 0.4 34 6.9 CALM 0 7 0 4 1024.2 1024.3 0.0
19/02:00pm 15.8 11.7 -0.4 33 6.8 S 11 22 6 12 1024.3 1024.4 0.0
19/01:30pm 14.9 10.5 0.4 37 6.2 SSW 13 19 7 10 1024.6 1024.7 0.0
19/01:00pm 15.6 12.6 1.0 37 6.3 E 6 11 3 6 1025.0 1025.1 0.0
19/12:30pm 15.4 12.6 2.9 43 5.7 E 7 13 4 7 1025.4 1025.5 0.0
19/12:00pm 13.7 10.3 1.7 44 5.2 SSW 9 19 5 10 1025.7 1025.8 0.0
19/11:30am 14.2 11.6 3.1 47 5.0 WSW 6 11 3 6 1025.9 1026.0 0.0
19/11:00am 13.2 9.9 2.4 48 4.7 S 9 13 5 7 1026.3 1026.4 0.0
19/10:30am 13.1 9.9 2.9 50 4.5 S 9 15 5 8 1026.7 1026.8 0.0
19/10:00am 11.7 7.8 3.2 56 3.7 SSE 13 19 7 10 1026.9 1027.0 0.0
19/09:30am 11.8 9.3 4.5 61 3.3 SSE 7 13 4 7 1027.0 1027.1 0.0
19/09:00am 10.1 7.9 5.5 73 2.1 S 6 9 3 5 1027.0 1027.1 0.0
19/08:30am 7.3 5.1 5.3 87 0.9 S 6 7 3 4 1026.8 1026.9 -
19/08:00am 4.7 1.9 3.4 91 0.5 S 7 9 4 5 1026.6 1026.7 -
19/07:30am 2.4 0.6 1.2 92 0.5 CALM 0 0 0 0 1026.4 1026.5 -
19/07:00am 0.7 -2.1 -0.4 92 0.4 S 4 6 2 3 1026.1 1026.2 -
19/06:30am 0.3 -2.6 -1.0 91 0.5 S 4 7 2 4 1025.8 1025.9 -
19/06:00am 0.8 -2.6 -0.5 91 0.5 S 7 7 4 4 1025.6 1025.7 -
19/05:30am 0.6 -2.6 -0.7 91 0.5 S 6 7 3 4 1025.4 1025.5 -
19/05:00am 1.4 -0.6 -0.1 90 0.5 CALM 0 0 0 0 1025.4 1025.5 -
19/04:30am 1.9 0.0 0.6 91 0.5 CALM 0 6 0 3 1025.3 1025.4 -
19/04:00am 1.9 0.0 0.3 89 0.6 CALM 0 0 0 0 1025.4 1025.5 -
19/03:30am 1.7 -0.3 0.1 89 0.6 CALM 0 0 0 0 1025.4 1025.5 -
19/03:00am 2.6 0.0 1.0 89 0.6 S 4 7 2 4 1025.3 1025.4 0.0
19/02:30am 1.9 -1.7 0.3 89 0.6 S 9 11 5 6 1025.2 1025.3 -
19/02:00am 2.5 -1.5 0.6 87 0.7 SSE 11 11 6 6 1025.4 1025.5 -
19/01:30am 3.3 -0.2 1.2 86 0.8 SE 9 9 5 5 1025.5 1025.6 -
19/01:00am 3.6 0.7 1.3 85 0.9 SE 6 7 3 4 1025.6 1025.7 -
19/12:30am 3.8 0.0 1.7 86 0.8 SSE 11 13 6 7 1025.6 1025.7 -
19/12:00am 5.2 1.2 2.9 85 0.9 SE 13 17 7 9 1025.7 1025.8 -
 
Date/Time
EST
Temp
°C
App
Temp
°C
Dew
Point
Rel
Hum
%
Delta-T
°C
Wind Press
QNH
hPa
Press
MSL
hPa
Rain
since 9 am
mm
Dir
 
Spd
km/h
Gust
km/h
Spd
kts
Gust
kts
18/11:30pm 5.7 1.8 3.5 86 0.9 SE 13 17 7 9 1025.8 1025.9 -
18/11:00pm 4.7 1.0 2.2 84 1.0 SSE 11 11 6 6 1026.0 1026.1 -
18/10:30pm 5.6 1.3 3.1 84 1.0 SSE 15 17 8 9 1026.0 1026.1 -
18/10:00pm 5.8 1.8 2.8 81 1.2 SSE 13 15 7 8 1025.9 1026.0 -
18/09:30pm 6.2 3.3 2.8 79 1.4 SSE 7 9 4 5 1025.8 1025.9 -
18/09:00pm 7.3 4.2 3.5 77 1.6 SSE 9 9 5 5 1025.7 1025.8 -
18/08:30pm 6.8 3.6 3.2 78 1.5 SSE 9 11 5 6 1025.5 1025.6 -
18/08:00pm 7.4 3.4 3.1 74 1.8 SSE 13 13 7 7 1025.3 1025.4 -
18/07:30pm 8.3 4.1 3.6 72 2.0 SSE 15 17 8 9 1025.0 1025.1 -
18/07:00pm 9.1 5.2 3.3 67 2.5 S 13 15 7 8 1024.6 1024.7 -
18/06:30pm 10.8 5.8 3.4 60 3.3 S 19 22 10 12 1024.2 1024.3 -
18/06:00pm 12.7 8.3 2.6 50 4.4 S 15 17 8 9 1024.1 1024.2 -

Other Formats:

Comma delimited format used in spreadsheet applications
http://www.bom.gov.au/fwo/IDV60801/IDV60801.94827.axf

JavaScript Object Notation format (JSON) in row-major order
http://www.bom.gov.au/fwo/IDV60801/IDV60801.94827.json